sensor_id;sensor_type;location;lat;lon;timestamp;temperature;humidity
12874;DHT22;6505;51.114;13.128;2023-09-07T00:00:52;23.10;57.00
12874;DHT22;6505;51.114;13.128;2023-09-07T00:03:20;23.10;57.00
12874;DHT22;6505;51.114;13.128;2023-09-07T00:05:49;23.00;56.90
12874;DHT22;6505;51.114;13.128;2023-09-07T00:08:18;23.00;56.90
12874;DHT22;6505;51.114;13.128;2023-09-07T00:10:46;23.00;56.90
12874;DHT22;6505;51.114;13.128;2023-09-07T00:13:14;22.90;56.80
12874;DHT22;6505;51.114;13.128;2023-09-07T00:15:42;22.90;56.90
12874;DHT22;6505;51.114;13.128;2023-09-07T00:18:12;22.90;56.90
12874;DHT22;6505;51.114;13.128;2023-09-07T00:20:43;22.90;56.80
12874;DHT22;6505;51.114;13.128;2023-09-07T00:23:11;22.80;56.70
12874;DHT22;6505;51.114;13.128;2023-09-07T00:25:39;22.80;56.70
12874;DHT22;6505;51.114;13.128;2023-09-07T00:28:07;22.80;56.80
12874;DHT22;6505;51.114;13.128;2023-09-07T00:30:36;22.80;57.10
12874;DHT22;6505;51.114;13.128;2023-09-07T00:33:04;22.70;56.60
12874;DHT22;6505;51.114;13.128;2023-09-07T00:35:33;22.70;56.70
12874;DHT22;6505;51.114;13.128;2023-09-07T00:38:02;22.80;56.70
12874;DHT22;6505;51.114;13.128;2023-09-07T00:40:31;22.70;56.80
12874;DHT22;6505;51.114;13.128;2023-09-07T00:42:59;22.70;56.60
12874;DHT22;6505;51.114;13.128;2023-09-07T00:45:27;22.70;56.60
12874;DHT22;6505;51.114;13.128;2023-09-07T00:47:55;22.60;56.60
12874;DHT22;6505;51.114;13.128;2023-09-07T00:50:24;22.60;56.60
12874;DHT22;6505;51.114;13.128;2023-09-07T00:52:54;22.60;56.50
12874;DHT22;6505;51.114;13.128;2023-09-07T00:55:22;22.60;56.60
12874;DHT22;6505;51.114;13.128;2023-09-07T00:57:51;22.50;56.50
12874;DHT22;6505;51.114;13.128;2023-09-07T01:00:19;22.50;56.50
12874;DHT22;6505;51.114;13.128;2023-09-07T01:02:47;22.50;56.50
12874;DHT22;6505;51.114;13.128;2023-09-07T01:05:16;22.50;56.50
12874;DHT22;6505;51.114;13.128;2023-09-07T01:07:47;22.50;56.50
12874;DHT22;6505;51.114;13.128;2023-09-07T01:10:22;22.40;56.50
12874;DHT22;6505;51.114;13.128;2023-09-07T01:12:50;22.40;56.40
12874;DHT22;6505;51.114;13.128;2023-09-07T01:15:18;22.40;56.40
12874;DHT22;6505;51.114;13.128;2023-09-07T01:17:47;22.40;56.40
12874;DHT22;6505;51.114;13.128;2023-09-07T01:20:16;22.40;56.50
12874;DHT22;6505;51.114;13.128;2023-09-07T01:22:47;22.30;56.40
12874;DHT22;6505;51.114;13.128;2023-09-07T01:25:15;22.30;56.40
12874;DHT22;6505;51.114;13.128;2023-09-07T01:27:44;22.30;56.40
12874;DHT22;6505;51.114;13.128;2023-09-07T01:30:13;22.30;56.50
12874;DHT22;6505;51.114;13.128;2023-09-07T01:32:43;22.30;56.40
12874;DHT22;6505;51.114;13.128;2023-09-07T01:35:11;22.30;56.30
12874;DHT22;6505;51.114;13.128;2023-09-07T01:37:43;22.20;56.30
12874;DHT22;6505;51.114;13.128;2023-09-07T01:40:13;22.20;56.20
12874;DHT22;6505;51.114;13.128;2023-09-07T01:42:41;22.20;56.30
12874;DHT22;6505;51.114;13.128;2023-09-07T01:45:09;22.10;56.20
12874;DHT22;6505;51.114;13.128;2023-09-07T01:47:37;22.10;56.30
12874;DHT22;6505;51.114;13.128;2023-09-07T01:50:06;22.10;56.40
12874;DHT22;6505;51.114;13.128;2023-09-07T01:52:35;22.10;56.50
12874;DHT22;6505;51.114;13.128;2023-09-07T01:55:03;22.10;56.50
12874;DHT22;6505;51.114;13.128;2023-09-07T01:57:33;22.00;57.20
12874;DHT22;6505;51.114;13.128;2023-09-07T02:00:01;22.00;56.40
12874;DHT22;6505;51.114;13.128;2023-09-07T02:02:38;22.10;56.60
12874;DHT22;6505;51.114;13.128;2023-09-07T02:05:07;22.00;56.60
12874;DHT22;6505;51.114;13.128;2023-09-07T02:07:36;22.00;57.00
12874;DHT22;6505;51.114;13.128;2023-09-07T02:10:05;22.00;57.00
12874;DHT22;6505;51.114;13.128;2023-09-07T02:12:35;21.90;57.20
12874;DHT22;6505;51.114;13.128;2023-09-07T02:15:04;21.90;57.10
12874;DHT22;6505;51.114;13.128;2023-09-07T02:17:33;21.90;57.40
12874;DHT22;6505;51.114;13.128;2023-09-07T02:20:03;21.90;57.40
12874;DHT22;6505;51.114;13.128;2023-09-07T02:22:37;21.90;57.40
12874;DHT22;6505;51.114;13.128;2023-09-07T02:25:06;21.90;57.40
12874;DHT22;6505;51.114;13.128;2023-09-07T02:27:36;21.80;57.30
12874;DHT22;6505;51.114;13.128;2023-09-07T02:30:06;21.80;57.30
12874;DHT22;6505;51.114;13.128;2023-09-07T02:32:35;21.80;57.50
12874;DHT22;6505;51.114;13.128;2023-09-07T02:35:03;21.80;57.30
12874;DHT22;6505;51.114;13.128;2023-09-07T02:37:32;21.80;57.50
12874;DHT22;6505;51.114;13.128;2023-09-07T02:40:00;21.80;57.40
12874;DHT22;6505;51.114;13.128;2023-09-07T02:42:33;21.80;57.90
12874;DHT22;6505;51.114;13.128;2023-09-07T02:45:03;21.80;57.20
12874;DHT22;6505;51.114;13.128;2023-09-07T02:47:32;21.70;57.30
12874;DHT22;6505;51.114;13.128;2023-09-07T02:50:00;21.80;57.40
12874;DHT22;6505;51.114;13.128;2023-09-07T02:52:28;21.70;57.30
12874;DHT22;6505;51.114;13.128;2023-09-07T02:54:56;21.70;57.40
12874;DHT22;6505;51.114;13.128;2023-09-07T02:57:25;21.70;57.40
12874;DHT22;6505;51.114;13.128;2023-09-07T02:59:54;21.70;57.30
12874;DHT22;6505;51.114;13.128;2023-09-07T03:02:23;21.70;57.40
12874;DHT22;6505;51.114;13.128;2023-09-07T03:04:53;21.60;57.30
12874;DHT22;6505;51.114;13.128;2023-09-07T03:07:26;21.60;57.40
12874;DHT22;6505;51.114;13.128;2023-09-07T03:09:54;21.60;57.00
12874;DHT22;6505;51.114;13.128;2023-09-07T03:12:23;21.60;57.10
12874;DHT22;6505;51.114;13.128;2023-09-07T03:14:52;21.60;57.10
12874;DHT22;6505;51.114;13.128;2023-09-07T03:17:20;21.60;57.30
12874;DHT22;6505;51.114;13.128;2023-09-07T03:19:50;21.60;57.10
12874;DHT22;6505;51.114;13.128;2023-09-07T03:22:18;21.50;57.00
12874;DHT22;6505;51.114;13.128;2023-09-07T03:24:49;21.50;57.00
12874;DHT22;6505;51.114;13.128;2023-09-07T03:27:19;21.60;57.20
12874;DHT22;6505;51.114;13.128;2023-09-07T03:29:49;21.50;57.00
12874;DHT22;6505;51.114;13.128;2023-09-07T03:32:19;21.40;56.80
12874;DHT22;6505;51.114;13.128;2023-09-07T03:34:47;21.50;57.50
12874;DHT22;6505;51.114;13.128;2023-09-07T03:37:17;21.40;56.60
12874;DHT22;6505;51.114;13.128;2023-09-07T03:39:45;21.40;56.40
12874;DHT22;6505;51.114;13.128;2023-09-07T03:42:14;21.40;56.40
12874;DHT22;6505;51.114;13.128;2023-09-07T03:44:42;21.40;56.40
12874;DHT22;6505;51.114;13.128;2023-09-07T03:47:13;21.40;56.40
12874;DHT22;6505;51.114;13.128;2023-09-07T03:49:42;21.40;56.40
12874;DHT22;6505;51.114;13.128;2023-09-07T03:52:11;21.40;56.40
12874;DHT22;6505;51.114;13.128;2023-09-07T03:54:40;21.30;56.40
12874;DHT22;6505;51.114;13.128;2023-09-07T03:57:08;21.30;56.30
12874;DHT22;6505;51.114;13.128;2023-09-07T03:59:37;21.30;56.40
12874;DHT22;6505;51.114;13.128;2023-09-07T04:02:05;21.20;56.20
12874;DHT22;6505;51.114;13.128;2023-09-07T04:04:33;21.30;56.30
12874;DHT22;6505;51.114;13.128;2023-09-07T04:07:01;21.20;56.20
12874;DHT22;6505;51.114;13.128;2023-09-07T04:09:30;21.20;56.20
12874;DHT22;6505;51.114;13.128;2023-09-07T04:12:00;21.20;56.40
12874;DHT22;6505;51.114;13.128;2023-09-07T04:14:30;21.10;56.00
12874;DHT22;6505;51.114;13.128;2023-09-07T04:16:58;21.10;56.10
12874;DHT22;6505;51.114;13.128;2023-09-07T04:19:27;21.10;56.20
12874;DHT22;6505;51.114;13.128;2023-09-07T04:21:56;21.10;56.00
12874;DHT22;6505;51.114;13.128;2023-09-07T04:24:25;21.10;56.40
12874;DHT22;6505;51.114;13.128;2023-09-07T04:26:57;21.10;56.40
12874;DHT22;6505;51.114;13.128;2023-09-07T04:29:28;21.10;56.70
12874;DHT22;6505;51.114;13.128;2023-09-07T04:31:57;21.10;56.50
12874;DHT22;6505;51.114;13.128;2023-09-07T04:34:25;21.10;56.60
12874;DHT22;6505;51.114;13.128;2023-09-07T04:36:54;21.00;56.50
12874;DHT22;6505;51.114;13.128;2023-09-07T04:39:22;21.00;56.60
12874;DHT22;6505;51.114;13.128;2023-09-07T04:41:51;21.00;56.60
12874;DHT22;6505;51.114;13.128;2023-09-07T04:44:21;21.00;56.50
12874;DHT22;6505;51.114;13.128;2023-09-07T04:46:49;21.00;56.50
12874;DHT22;6505;51.114;13.128;2023-09-07T04:49:19;21.00;56.60
12874;DHT22;6505;51.114;13.128;2023-09-07T04:51:48;21.00;56.70
12874;DHT22;6505;51.114;13.128;2023-09-07T04:54:16;21.00;56.60
12874;DHT22;6505;51.114;13.128;2023-09-07T04:56:44;20.90;56.70
12874;DHT22;6505;51.114;13.128;2023-09-07T04:59:12;20.90;56.90
12874;DHT22;6505;51.114;13.128;2023-09-07T05:01:42;20.90;57.00
12874;DHT22;6505;51.114;13.128;2023-09-07T05:04:11;20.90;57.20
12874;DHT22;6505;51.114;13.128;2023-09-07T05:06:39;20.90;57.10
12874;DHT22;6505;51.114;13.128;2023-09-07T05:09:08;20.90;57.10
12874;DHT22;6505;51.114;13.128;2023-09-07T05:11:36;20.90;57.20
12874;DHT22;6505;51.114;13.128;2023-09-07T05:14:04;20.90;57.30
12874;DHT22;6505;51.114;13.128;2023-09-07T05:16:32;20.90;57.40
12874;DHT22;6505;51.114;13.128;2023-09-07T05:19:02;20.90;57.60
12874;DHT22;6505;51.114;13.128;2023-09-07T05:21:30;20.90;57.60
12874;DHT22;6505;51.114;13.128;2023-09-07T05:23:58;20.90;57.70
12874;DHT22;6505;51.114;13.128;2023-09-07T05:26:26;20.90;57.80
12874;DHT22;6505;51.114;13.128;2023-09-07T05:28:55;21.00;58.10
12874;DHT22;6505;51.114;13.128;2023-09-07T05:31:23;20.90;58.20
12874;DHT22;6505;51.114;13.128;2023-09-07T05:33:51;20.90;58.20
12874;DHT22;6505;51.114;13.128;2023-09-07T05:36:21;20.90;58.30
12874;DHT22;6505;51.114;13.128;2023-09-07T05:38:49;20.90;58.70
12874;DHT22;6505;51.114;13.128;2023-09-07T05:41:17;20.90;58.70
12874;DHT22;6505;51.114;13.128;2023-09-07T05:43:45;20.90;58.90
12874;DHT22;6505;51.114;13.128;2023-09-07T05:46:13;21.00;58.90
12874;DHT22;6505;51.114;13.128;2023-09-07T05:48:42;21.00;58.90
12874;DHT22;6505;51.114;13.128;2023-09-07T05:51:10;21.00;59.10
12874;DHT22;6505;51.114;13.128;2023-09-07T05:53:40;21.00;59.50
12874;DHT22;6505;51.114;13.128;2023-09-07T05:56:08;21.00;59.70
12874;DHT22;6505;51.114;13.128;2023-09-07T05:58:36;21.00;59.80
12874;DHT22;6505;51.114;13.128;2023-09-07T06:01:04;21.00;59.70
12874;DHT22;6505;51.114;13.128;2023-09-07T06:03:33;21.10;59.90
12874;DHT22;6505;51.114;13.128;2023-09-07T06:06:02;21.10;60.20
12874;DHT22;6505;51.114;13.128;2023-09-07T06:08:30;21.10;60.10
12874;DHT22;6505;51.114;13.128;2023-09-07T06:11:00;21.20;60.70
12874;DHT22;6505;51.114;13.128;2023-09-07T06:13:29;21.20;60.90
12874;DHT22;6505;51.114;13.128;2023-09-07T06:15:57;21.30;61.00
12874;DHT22;6505;51.114;13.128;2023-09-07T06:18:27;21.20;61.10
12874;DHT22;6505;51.114;13.128;2023-09-07T06:20:56;21.20;61.10
12874;DHT22;6505;51.114;13.128;2023-09-07T06:23:24;21.30;61.30
12874;DHT22;6505;51.114;13.128;2023-09-07T06:25:52;21.30;61.40
12874;DHT22;6505;51.114;13.128;2023-09-07T06:28:22;21.30;61.90
12874;DHT22;6505;51.114;13.128;2023-09-07T06:30:50;21.40;62.20
12874;DHT22;6505;51.114;13.128;2023-09-07T06:33:19;21.40;62.10
12874;DHT22;6505;51.114;13.128;2023-09-07T06:35:47;21.40;62.40
12874;DHT22;6505;51.114;13.128;2023-09-07T06:38:15;21.50;62.20
12874;DHT22;6505;51.114;13.128;2023-09-07T06:40:47;21.50;62.30
12874;DHT22;6505;51.114;13.128;2023-09-07T06:43:18;21.50;62.10
12874;DHT22;6505;51.114;13.128;2023-09-07T06:45:48;21.50;61.90
12874;DHT22;6505;51.114;13.128;2023-09-07T06:48:16;21.60;62.10
12874;DHT22;6505;51.114;13.128;2023-09-07T06:50:44;21.60;63.30
12874;DHT22;6505;51.114;13.128;2023-09-07T06:53:13;21.70;62.80
12874;DHT22;6505;51.114;13.128;2023-09-07T06:55:41;21.70;62.90
12874;DHT22;6505;51.114;13.128;2023-09-07T06:58:09;21.80;62.90
12874;DHT22;6505;51.114;13.128;2023-09-07T07:00:37;21.80;63.20
12874;DHT22;6505;51.114;13.128;2023-09-07T07:03:07;21.90;63.40
12874;DHT22;6505;51.114;13.128;2023-09-07T07:05:35;21.90;63.20
12874;DHT22;6505;51.114;13.128;2023-09-07T07:08:04;22.00;63.10
12874;DHT22;6505;51.114;13.128;2023-09-07T07:10:32;22.00;63.40
12874;DHT22;6505;51.114;13.128;2023-09-07T07:13:00;22.10;63.80
12874;DHT22;6505;51.114;13.128;2023-09-07T07:15:29;22.10;64.30
12874;DHT22;6505;51.114;13.128;2023-09-07T07:18:16;22.20;64.20
12874;DHT22;6505;51.114;13.128;2023-09-07T07:20:44;22.30;64.40
12874;DHT22;6505;51.114;13.128;2023-09-07T07:23:12;22.30;64.20
12874;DHT22;6505;51.114;13.128;2023-09-07T07:25:41;22.40;64.60
12874;DHT22;6505;51.114;13.128;2023-09-07T07:28:09;22.50;64.70
12874;DHT22;6505;51.114;13.128;2023-09-07T07:30:39;22.50;64.80
12874;DHT22;6505;51.114;13.128;2023-09-07T07:33:08;22.60;65.30
12874;DHT22;6505;51.114;13.128;2023-09-07T07:35:40;22.60;65.10
12874;DHT22;6505;51.114;13.128;2023-09-07T07:38:08;22.70;65.40
12874;DHT22;6505;51.114;13.128;2023-09-07T07:40:37;22.70;65.30
12874;DHT22;6505;51.114;13.128;2023-09-07T07:43:06;22.80;65.50
12874;DHT22;6505;51.114;13.128;2023-09-07T07:45:35;22.90;66.90
12874;DHT22;6505;51.114;13.128;2023-09-07T07:48:05;23.00;66.30
12874;DHT22;6505;51.114;13.128;2023-09-07T07:50:37;23.10;66.40
12874;DHT22;6505;51.114;13.128;2023-09-07T07:53:10;23.10;66.70
12874;DHT22;6505;51.114;13.128;2023-09-07T07:55:39;23.20;66.60
12874;DHT22;6505;51.114;13.128;2023-09-07T07:58:11;23.20;67.40
12874;DHT22;6505;51.114;13.128;2023-09-07T08:00:41;23.30;67.30
12874;DHT22;6505;51.114;13.128;2023-09-07T08:03:11;23.40;66.70
12874;DHT22;6505;51.114;13.128;2023-09-07T08:05:41;23.50;66.70
12874;DHT22;6505;51.114;13.128;2023-09-07T08:08:10;23.60;67.00
12874;DHT22;6505;51.114;13.128;2023-09-07T08:10:39;23.70;67.00
12874;DHT22;6505;51.114;13.128;2023-09-07T08:13:09;23.70;67.00
12874;DHT22;6505;51.114;13.128;2023-09-07T08:15:38;23.80;66.90
12874;DHT22;6505;51.114;13.128;2023-09-07T08:18:07;23.90;67.10
12874;DHT22;6505;51.114;13.128;2023-09-07T08:20:37;24.00;67.40
12874;DHT22;6505;51.114;13.128;2023-09-07T08:23:09;24.10;66.90
12874;DHT22;6505;51.114;13.128;2023-09-07T08:25:38;24.20;66.10
12874;DHT22;6505;51.114;13.128;2023-09-07T08:28:11;24.30;65.90
12874;DHT22;6505;51.114;13.128;2023-09-07T08:30:40;24.40;64.80
12874;DHT22;6505;51.114;13.128;2023-09-07T08:33:08;24.50;64.00
12874;DHT22;6505;51.114;13.128;2023-09-07T08:35:37;24.60;64.60
12874;DHT22;6505;51.114;13.128;2023-09-07T08:38:12;24.70;64.50
12874;DHT22;6505;51.114;13.128;2023-09-07T08:40:40;24.80;64.50
12874;DHT22;6505;51.114;13.128;2023-09-07T08:43:09;24.90;63.90
12874;DHT22;6505;51.114;13.128;2023-09-07T08:45:43;25.00;63.30
12874;DHT22;6505;51.114;13.128;2023-09-07T08:48:17;25.20;62.30
12874;DHT22;6505;51.114;13.128;2023-09-07T08:50:47;25.20;61.50
12874;DHT22;6505;51.114;13.128;2023-09-07T08:53:20;25.30;61.00
12874;DHT22;6505;51.114;13.128;2023-09-07T08:55:50;25.40;60.60
12874;DHT22;6505;51.114;13.128;2023-09-07T08:58:19;25.50;60.70
12874;DHT22;6505;51.114;13.128;2023-09-07T09:00:47;25.60;60.90
12874;DHT22;6505;51.114;13.128;2023-09-07T09:03:16;25.60;60.70
12874;DHT22;6505;51.114;13.128;2023-09-07T09:05:45;25.70;60.90
12874;DHT22;6505;51.114;13.128;2023-09-07T09:08:17;25.80;61.20
12874;DHT22;6505;51.114;13.128;2023-09-07T09:10:48;25.80;60.50
12874;DHT22;6505;51.114;13.128;2023-09-07T09:13:16;25.80;60.20
12874;DHT22;6505;51.114;13.128;2023-09-07T09:15:55;25.90;60.60
12874;DHT22;6505;51.114;13.128;2023-09-07T09:18:23;25.90;60.80
12874;DHT22;6505;51.114;13.128;2023-09-07T09:20:54;25.90;60.50
12874;DHT22;6505;51.114;13.128;2023-09-07T09:23:22;25.90;60.30
12874;DHT22;6505;51.114;13.128;2023-09-07T09:25:52;26.00;59.70
12874;DHT22;6505;51.114;13.128;2023-09-07T09:28:20;26.00;59.90
12874;DHT22;6505;51.114;13.128;2023-09-07T09:30:48;26.00;60.00
12874;DHT22;6505;51.114;13.128;2023-09-07T09:33:19;25.90;60.30
12874;DHT22;6505;51.114;13.128;2023-09-07T09:35:48;26.00;60.40
12874;DHT22;6505;51.114;13.128;2023-09-07T09:38:17;26.00;60.20
12874;DHT22;6505;51.114;13.128;2023-09-07T09:40:45;26.00;60.10
12874;DHT22;6505;51.114;13.128;2023-09-07T09:43:15;26.00;59.70
12874;DHT22;6505;51.114;13.128;2023-09-07T09:45:43;26.00;59.50
12874;DHT22;6505;51.114;13.128;2023-09-07T09:48:12;26.00;59.30
12874;DHT22;6505;51.114;13.128;2023-09-07T09:50:42;26.00;59.30
12874;DHT22;6505;51.114;13.128;2023-09-07T09:53:12;26.00;58.90
12874;DHT22;6505;51.114;13.128;2023-09-07T09:55:42;26.10;57.90
12874;DHT22;6505;51.114;13.128;2023-09-07T09:58:11;26.10;57.60
12874;DHT22;6505;51.114;13.128;2023-09-07T10:00:42;26.00;57.20
12874;DHT22;6505;51.114;13.128;2023-09-07T10:03:15;26.10;55.70
12874;DHT22;6505;51.114;13.128;2023-09-07T10:05:46;26.20;54.20
12874;DHT22;6505;51.114;13.128;2023-09-07T10:08:16;26.20;53.00
12874;DHT22;6505;51.114;13.128;2023-09-07T10:10:47;26.20;51.80
12874;DHT22;6505;51.114;13.128;2023-09-07T10:13:16;26.20;51.90
12874;DHT22;6505;51.114;13.128;2023-09-07T10:16:01;26.30;51.90
12874;DHT22;6505;51.114;13.128;2023-09-07T10:18:35;26.30;52.00
12874;DHT22;6505;51.114;13.128;2023-09-07T10:21:04;26.40;51.10
12874;DHT22;6505;51.114;13.128;2023-09-07T10:23:37;26.40;50.20
12874;DHT22;6505;51.114;13.128;2023-09-07T10:26:11;26.50;49.80
12874;DHT22;6505;51.114;13.128;2023-09-07T10:28:40;26.50;49.10
12874;DHT22;6505;51.114;13.128;2023-09-07T10:31:15;26.50;48.50
12874;DHT22;6505;51.114;13.128;2023-09-07T10:33:45;26.60;48.40
12874;DHT22;6505;51.114;13.128;2023-09-07T10:36:22;26.60;48.70
12874;DHT22;6505;51.114;13.128;2023-09-07T10:38:53;26.70;49.20
12874;DHT22;6505;51.114;13.128;2023-09-07T10:41:22;26.70;48.90
12874;DHT22;6505;51.114;13.128;2023-09-07T10:43:52;26.70;49.10
12874;DHT22;6505;51.114;13.128;2023-09-07T10:46:24;26.70;49.20
12874;DHT22;6505;51.114;13.128;2023-09-07T10:48:53;26.80;48.70
12874;DHT22;6505;51.114;13.128;2023-09-07T10:51:23;26.90;48.80
12874;DHT22;6505;51.114;13.128;2023-09-07T10:53:51;26.90;49.70
12874;DHT22;6505;51.114;13.128;2023-09-07T10:56:24;27.00;49.30
12874;DHT22;6505;51.114;13.128;2023-09-07T10:58:53;27.00;49.40
12874;DHT22;6505;51.114;13.128;2023-09-07T11:01:23;27.00;49.60
12874;DHT22;6505;51.114;13.128;2023-09-07T11:03:51;27.10;49.20
12874;DHT22;6505;51.114;13.128;2023-09-07T11:06:20;27.10;49.50
12874;DHT22;6505;51.114;13.128;2023-09-07T11:08:52;27.20;49.50
12874;DHT22;6505;51.114;13.128;2023-09-07T11:11:21;27.20;49.30
12874;DHT22;6505;51.114;13.128;2023-09-07T11:13:50;27.30;48.90
12874;DHT22;6505;51.114;13.128;2023-09-07T11:16:18;27.30;48.60
12874;DHT22;6505;51.114;13.128;2023-09-07T11:18:48;27.30;48.90
12874;DHT22;6505;51.114;13.128;2023-09-07T11:21:18;27.40;47.90
12874;DHT22;6505;51.114;13.128;2023-09-07T11:23:46;27.40;47.50
12874;DHT22;6505;51.114;13.128;2023-09-07T11:26:15;27.50;47.30
12874;DHT22;6505;51.114;13.128;2023-09-07T11:28:46;27.60;47.60
12874;DHT22;6505;51.114;13.128;2023-09-07T11:31:18;27.50;47.20
12874;DHT22;6505;51.114;13.128;2023-09-07T11:33:48;27.60;46.90
12874;DHT22;6505;51.114;13.128;2023-09-07T11:36:16;27.60;47.10
12874;DHT22;6505;51.114;13.128;2023-09-07T11:38:44;27.70;46.80
12874;DHT22;6505;51.114;13.128;2023-09-07T11:41:12;27.70;46.70
12874;DHT22;6505;51.114;13.128;2023-09-07T11:43:40;27.70;47.00
12874;DHT22;6505;51.114;13.128;2023-09-07T11:46:08;27.70;46.50
12874;DHT22;6505;51.114;13.128;2023-09-07T11:48:38;27.80;46.40
12874;DHT22;6505;51.114;13.128;2023-09-07T11:51:08;27.80;46.20
12874;DHT22;6505;51.114;13.128;2023-09-07T11:53:36;27.90;45.60
12874;DHT22;6505;51.114;13.128;2023-09-07T11:56:04;27.90;45.20
12874;DHT22;6505;51.114;13.128;2023-09-07T11:58:32;27.90;45.40
12874;DHT22;6505;51.114;13.128;2023-09-07T12:01:01;27.90;45.00
12874;DHT22;6505;51.114;13.128;2023-09-07T12:03:30;28.00;45.30
12874;DHT22;6505;51.114;13.128;2023-09-07T12:06:00;28.00;45.20
12874;DHT22;6505;51.114;13.128;2023-09-07T12:08:30;28.00;45.40
12874;DHT22;6505;51.114;13.128;2023-09-07T12:10:59;28.10;45.40
12874;DHT22;6505;51.114;13.128;2023-09-07T12:13:27;28.10;45.00
12874;DHT22;6505;51.114;13.128;2023-09-07T12:15:55;28.10;44.70
12874;DHT22;6505;51.114;13.128;2023-09-07T12:18:23;28.10;44.80
12874;DHT22;6505;51.114;13.128;2023-09-07T12:20:51;28.20;45.10
12874;DHT22;6505;51.114;13.128;2023-09-07T12:23:19;28.20;45.20
12874;DHT22;6505;51.114;13.128;2023-09-07T12:25:49;28.20;45.40
12874;DHT22;6505;51.114;13.128;2023-09-07T12:28:18;28.30;45.80
12874;DHT22;6505;51.114;13.128;2023-09-07T12:30:46;28.30;45.20
12874;DHT22;6505;51.114;13.128;2023-09-07T12:33:15;28.30;44.90
12874;DHT22;6505;51.114;13.128;2023-09-07T12:35:44;28.40;45.00
12874;DHT22;6505;51.114;13.128;2023-09-07T12:38:12;28.40;44.70
12874;DHT22;6505;51.114;13.128;2023-09-07T12:40:44;28.40;44.90
12874;DHT22;6505;51.114;13.128;2023-09-07T12:43:14;28.40;45.00
12874;DHT22;6505;51.114;13.128;2023-09-07T12:45:42;28.50;44.80
12874;DHT22;6505;51.114;13.128;2023-09-07T12:48:11;28.50;45.00
12874;DHT22;6505;51.114;13.128;2023-09-07T12:50:42;28.50;45.10
12874;DHT22;6505;51.114;13.128;2023-09-07T12:53:10;28.50;45.00
12874;DHT22;6505;51.114;13.128;2023-09-07T12:55:38;28.50;44.90
12874;DHT22;6505;51.114;13.128;2023-09-07T12:58:07;28.50;44.80
12874;DHT22;6505;51.114;13.128;2023-09-07T13:00:36;28.60;44.90
12874;DHT22;6505;51.114;13.128;2023-09-07T13:03:11;28.60;45.60
12874;DHT22;6505;51.114;13.128;2023-09-07T13:05:39;28.60;45.10
12874;DHT22;6505;51.114;13.128;2023-09-07T13:08:08;28.60;44.70
12874;DHT22;6505;51.114;13.128;2023-09-07T13:10:36;28.60;44.30
12874;DHT22;6505;51.114;13.128;2023-09-07T13:13:05;28.70;44.30
12874;DHT22;6505;51.114;13.128;2023-09-07T13:15:33;28.70;44.50
12874;DHT22;6505;51.114;13.128;2023-09-07T13:18:03;28.70;44.60
12874;DHT22;6505;51.114;13.128;2023-09-07T13:20:32;28.70;45.00
12874;DHT22;6505;51.114;13.128;2023-09-07T13:23:00;28.70;44.50
12874;DHT22;6505;51.114;13.128;2023-09-07T13:25:28;28.80;44.30
12874;DHT22;6505;51.114;13.128;2023-09-07T13:27:56;28.80;44.40
12874;DHT22;6505;51.114;13.128;2023-09-07T13:30:27;28.80;44.50
12874;DHT22;6505;51.114;13.128;2023-09-07T13:32:56;28.80;44.90
12874;DHT22;6505;51.114;13.128;2023-09-07T13:35:24;28.80;44.50
12874;DHT22;6505;51.114;13.128;2023-09-07T13:37:52;28.80;44.70
12874;DHT22;6505;51.114;13.128;2023-09-07T13:40:20;28.80;43.90
12874;DHT22;6505;51.114;13.128;2023-09-07T13:42:50;28.80;43.90
12874;DHT22;6505;51.114;13.128;2023-09-07T13:45:18;28.90;44.00
12874;DHT22;6505;51.114;13.128;2023-09-07T13:47:47;28.90;43.70
12874;DHT22;6505;51.114;13.128;2023-09-07T13:50:17;28.90;43.80
12874;DHT22;6505;51.114;13.128;2023-09-07T13:52:46;28.90;44.50
12874;DHT22;6505;51.114;13.128;2023-09-07T13:55:14;28.90;44.10
12874;DHT22;6505;51.114;13.128;2023-09-07T13:57:43;28.90;44.00
12874;DHT22;6505;51.114;13.128;2023-09-07T14:00:11;28.90;43.70
12874;DHT22;6505;51.114;13.128;2023-09-07T14:02:40;29.00;43.50
12874;DHT22;6505;51.114;13.128;2023-09-07T14:05:08;29.00;43.90
12874;DHT22;6505;51.114;13.128;2023-09-07T14:07:40;29.00;43.50
12874;DHT22;6505;51.114;13.128;2023-09-07T14:10:09;29.00;43.10
12874;DHT22;6505;51.114;13.128;2023-09-07T14:12:37;29.00;43.00
12874;DHT22;6505;51.114;13.128;2023-09-07T14:15:06;29.10;43.30
12874;DHT22;6505;51.114;13.128;2023-09-07T14:17:35;29.10;43.40
12874;DHT22;6505;51.114;13.128;2023-09-07T14:20:03;29.10;43.50
12874;DHT22;6505;51.114;13.128;2023-09-07T14:22:32;29.10;43.60
12874;DHT22;6505;51.114;13.128;2023-09-07T14:25:01;29.10;43.30
12874;DHT22;6505;51.114;13.128;2023-09-07T14:27:30;29.10;43.10
12874;DHT22;6505;51.114;13.128;2023-09-07T14:29:58;29.10;43.30
12874;DHT22;6505;51.114;13.128;2023-09-07T14:32:26;29.10;43.30
12874;DHT22;6505;51.114;13.128;2023-09-07T14:34:54;29.10;43.20
12874;DHT22;6505;51.114;13.128;2023-09-07T14:37:22;29.20;43.70
12874;DHT22;6505;51.114;13.128;2023-09-07T14:39:50;29.20;43.60
12874;DHT22;6505;51.114;13.128;2023-09-07T14:42:24;29.20;43.80
12874;DHT22;6505;51.114;13.128;2023-09-07T14:44:52;29.20;43.40
12874;DHT22;6505;51.114;13.128;2023-09-07T14:47:20;29.20;43.10
12874;DHT22;6505;51.114;13.128;2023-09-07T14:49:52;29.20;43.00
12874;DHT22;6505;51.114;13.128;2023-09-07T14:52:20;29.20;42.90
12874;DHT22;6505;51.114;13.128;2023-09-07T14:54:51;29.20;43.10
12874;DHT22;6505;51.114;13.128;2023-09-07T14:57:19;29.20;42.70
12874;DHT22;6505;51.114;13.128;2023-09-07T14:59:48;29.20;42.70
12874;DHT22;6505;51.114;13.128;2023-09-07T15:02:17;29.20;42.30
12874;DHT22;6505;51.114;13.128;2023-09-07T15:04:45;29.20;42.30
12874;DHT22;6505;51.114;13.128;2023-09-07T15:07:14;29.30;42.00
12874;DHT22;6505;51.114;13.128;2023-09-07T15:09:42;29.30;42.00
12874;DHT22;6505;51.114;13.128;2023-09-07T15:12:10;29.30;41.80
12874;DHT22;6505;51.114;13.128;2023-09-07T15:14:38;29.30;41.70
12874;DHT22;6505;51.114;13.128;2023-09-07T15:17:08;29.30;41.60
12874;DHT22;6505;51.114;13.128;2023-09-07T15:19:36;29.30;41.30
12874;DHT22;6505;51.114;13.128;2023-09-07T15:22:04;29.30;40.50
12874;DHT22;6505;51.114;13.128;2023-09-07T15:24:32;29.40;40.70
12874;DHT22;6505;51.114;13.128;2023-09-07T15:27:07;29.40;40.70
12874;DHT22;6505;51.114;13.128;2023-09-07T15:29:35;29.30;40.30
12874;DHT22;6505;51.114;13.128;2023-09-07T15:32:04;29.40;40.40
12874;DHT22;6505;51.114;13.128;2023-09-07T15:34:35;29.40;40.40
12874;DHT22;6505;51.114;13.128;2023-09-07T15:37:03;29.40;40.10
12874;DHT22;6505;51.114;13.128;2023-09-07T15:39:32;29.40;40.00
12874;DHT22;6505;51.114;13.128;2023-09-07T15:42:00;29.40;39.90